Shoshone, California Weather observations

Data are for observation ending at time listed.
 Day   Time    Ave.   Ave.  Ave.  Vector   Max.   Stn.    Total    Solar   Ave.  
  of    of     Air    Rel.  Wind   Wind    Wind   Baro.  Precip.   Rad.    Soil  
Year   Day     Temp.  Hum.  Speed  Dir.    Gust   Pres.                    Temp. 
2014   (PST)    F      %     mph   deg.    mph     mb.     in.     W/m2     F   
------------------------------------------------------------------------------
 272   20:00   70.7    27    1.8    55      4.2    965     0.00       0    22.2
 272   21:00   68.5    26    1.6    71      3.9    966     0.00       0    23.9
 272   22:00   64.6    31    0.7   334      5.8    966     0.00       0    27.8
 272   23:00   63.5    32    0.9    61      5.1    966     0.00       1    31.8
 273    0:00   62.6    34    0.5    78      2.5    966     0.00       0    37.7
 273    1:00   59.6    39    0.4   344      3.5    966     0.00       0    44.9
 273    2:00   57.6    42    0.4    56      3.2    966     0.00       1    53.0
 273    3:00   54.5    46    0.7   351      2.8    966     0.00       1    60.5
 273    4:00   53.9    46    1.0    58      4.1    966     0.00       1    69.2
 273    5:00   52.9    48    1.0    68      2.1    966     0.00       1    79.0
 273    6:00   50.5    51    1.0   342      3.7    966     0.00       5    89.0
 273    7:00   54.0    46    0.7   328      2.9    966     0.00     120    99.4
 273    8:00   63.9    34    0.6   308      3.4    966     0.00     330    113.8
 273    9:00   70.8    29    0.7   248      3.6    966     0.00     534    120.2
 273   10:00   77.1    24    1.9   258      5.8    966     0.00     692    112.8
 273   11:00   81.7    20    2.1   260      5.9    966     0.00     798    98.2
 273   12:00   84.6    17    2.5   201      7.2    964     0.00     842    83.3
 273   13:00   86.7    15    3.4   134      8.6    963     0.00     819    70.4
 273   14:00   88.9    14    3.4   161     13.2    962     0.00     727    58.7
 273   15:00   90.1    13    4.0   207     14.2    961     0.00     582    47.6
 273   16:00   90.1    13    4.3   177     11.8    960     0.00     389    36.9
 273   17:00   87.8    15    5.0   163     12.2    960     0.00     177    29.9
 273   18:00   83.7    16    0.9   156      5.3    960     0.00      16    26.0
 273   19:00   80.8    15    1.5   107      3.2    959     0.00       0    23.8

Return to Shoshone, California graphs page.


Western Regional Climate Center,wrcc@dri.edu